createdAt,value
2018-11-23T00:00:39.741Z,-0.40
2018-11-23T00:03:11.623Z,-0.50
2018-11-23T00:05:43.480Z,-0.50
2018-11-23T00:08:15.307Z,-0.50
2018-11-23T00:10:47.368Z,-0.50
2018-11-23T00:13:18.749Z,-0.50
2018-11-23T00:15:49.866Z,-0.50
2018-11-23T00:18:21.346Z,-0.50
2018-11-23T00:20:53.337Z,-0.50
2018-11-23T00:23:25.487Z,-0.50
2018-11-23T00:25:57.540Z,-0.50
2018-11-23T00:28:28.717Z,-0.50
2018-11-23T00:31:00.649Z,-0.50
2018-11-23T00:33:31.067Z,-0.60
2018-11-23T00:35:59.686Z,-0.60
2018-11-23T00:38:28.248Z,-0.60
2018-11-23T00:40:56.888Z,-0.60
2018-11-23T00:43:25.414Z,-0.60
2018-11-23T00:45:53.944Z,-0.60
2018-11-23T00:48:22.512Z,-0.60
2018-11-23T00:50:51.056Z,-0.60
2018-11-23T00:53:19.598Z,-0.60
2018-11-23T00:55:48.152Z,-0.60
2018-11-23T00:58:16.676Z,-0.60
2018-11-23T01:00:45.260Z,-0.60
2018-11-23T01:03:13.809Z,-0.60
2018-11-23T01:05:42.349Z,-0.60
2018-11-23T01:08:10.921Z,-0.60
2018-11-23T01:10:39.486Z,-0.60
2018-11-23T01:13:08.020Z,-0.60
2018-11-23T01:15:36.584Z,-0.60
2018-11-23T01:18:05.395Z,-0.60
2018-11-23T01:20:33.932Z,-0.60
2018-11-23T01:23:02.455Z,-0.60
2018-11-23T01:25:31.011Z,-0.60
2018-11-23T01:28:00.017Z,-0.60
2018-11-23T01:30:35.337Z,-0.60
2018-11-23T01:33:03.868Z,-0.60
2018-11-23T01:35:32.412Z,-0.60
2018-11-23T01:38:00.912Z,-0.60
2018-11-23T01:40:30.649Z,-0.70
2018-11-23T01:42:59.685Z,-0.70
2018-11-23T01:45:28.273Z,-0.70
2018-11-23T01:47:56.859Z,-0.70
2018-11-23T01:50:26.915Z,-0.70
2018-11-23T01:52:55.440Z,-0.80
2018-11-23T01:55:24.603Z,-0.80
2018-11-23T01:57:53.567Z,-0.80
2018-11-23T02:00:24.181Z,-0.80
2018-11-23T02:02:53.530Z,-0.80
2018-11-23T02:05:22.100Z,-0.80
2018-11-23T02:07:51.016Z,-0.80
2018-11-23T02:10:20.200Z,-0.70
2018-11-23T02:12:48.751Z,-0.70
2018-11-23T02:15:20.449Z,-0.70
2018-11-23T02:17:49.500Z,-0.70
2018-11-23T02:20:18.960Z,-0.70
2018-11-23T02:22:47.651Z,-0.70
2018-11-23T02:25:16.221Z,-0.70
2018-11-23T02:27:44.763Z,-0.80
2018-11-23T02:30:15.582Z,-0.80
2018-11-23T02:32:44.463Z,-0.80
2018-11-23T02:35:13.642Z,-0.80
2018-11-23T02:37:42.243Z,-0.80
2018-11-23T02:40:12.372Z,-0.80
2018-11-23T02:42:40.923Z,-0.80
2018-11-23T02:45:12.884Z,-0.70
2018-11-23T02:47:42.220Z,-0.70
2018-11-23T02:50:11.016Z,-0.70
2018-11-23T02:52:40.272Z,-0.70
2018-11-23T02:55:09.959Z,-0.70
2018-11-23T02:57:38.640Z,-0.70
2018-11-23T03:00:13.493Z,-0.80
2018-11-23T03:02:42.335Z,-0.80
2018-11-23T03:05:12.839Z,-0.80
2018-11-23T03:07:42.094Z,-0.80
2018-11-23T03:10:12.025Z,-0.70
2018-11-23T03:12:41.397Z,-0.70
2018-11-23T03:15:11.857Z,-0.60
2018-11-23T03:17:40.855Z,-0.60
2018-11-23T03:20:11.608Z,-0.60
2018-11-23T03:22:40.697Z,-0.60
2018-11-23T03:25:10.522Z,-0.50
2018-11-23T03:27:39.116Z,-0.50
2018-11-23T03:30:13.235Z,-0.50
2018-11-23T03:32:41.900Z,-0.50
2018-11-23T03:35:10.540Z,-0.40
2018-11-23T03:37:39.397Z,-0.40
2018-11-23T03:40:08.281Z,-0.40
2018-11-23T03:42:37.551Z,-0.40
2018-11-23T03:45:07.709Z,-0.40
2018-11-23T03:47:36.275Z,-0.40
2018-11-23T03:50:05.277Z,-0.30
2018-11-23T03:52:33.829Z,-0.30
2018-11-23T03:55:02.366Z,-0.30
2018-11-23T03:57:30.938Z,-0.20
2018-11-23T03:59:59.460Z,-0.20
2018-11-23T04:02:28.333Z,-0.20
2018-11-23T04:04:57.823Z,-0.10
2018-11-23T04:07:26.383Z,-0.10
2018-11-23T04:09:54.886Z,-0.10
2018-11-23T04:12:23.423Z,-0.10
2018-11-23T04:14:51.940Z,0.00
2018-11-23T04:17:20.561Z,0.00
2018-11-23T04:19:49.196Z,0.00
2018-11-23T04:22:17.744Z,0.10
2018-11-23T04:24:46.308Z,0.10
2018-11-23T04:27:14.832Z,0.10
2018-11-23T04:29:43.406Z,0.20
2018-11-23T04:32:11.950Z,0.20
2018-11-23T04:34:40.486Z,0.30
2018-11-23T04:37:09.025Z,0.30
2018-11-23T04:39:37.530Z,0.40
2018-11-23T04:42:06.431Z,0.50
2018-11-23T04:44:34.929Z,0.50
2018-11-23T04:47:03.489Z,0.50
2018-11-23T04:49:32.019Z,0.60
2018-11-23T04:52:01.135Z,0.50
2018-11-23T04:54:30.011Z,0.60
2018-11-23T04:56:58.527Z,0.60
2018-11-23T04:59:27.057Z,0.60
2018-11-23T05:01:55.656Z,0.70
2018-11-23T05:04:24.155Z,0.70
2018-11-23T05:06:52.647Z,0.70
2018-11-23T05:09:21.217Z,0.70
2018-11-23T05:11:50.317Z,0.70
2018-11-23T05:14:18.312Z,0.70
2018-11-23T05:16:46.880Z,0.70
2018-11-23T05:19:15.427Z,0.70
2018-11-23T05:21:43.979Z,0.70
2018-11-23T05:24:12.548Z,0.80
2018-11-23T05:26:41.442Z,0.80
2018-11-23T05:29:10.009Z,0.80
2018-11-23T05:31:38.522Z,0.80
2018-11-23T05:34:07.175Z,0.80
2018-11-23T05:36:35.689Z,0.80
2018-11-23T05:39:05.657Z,0.80
2018-11-23T05:41:34.155Z,0.80
2018-11-23T05:44:02.807Z,0.80
2018-11-23T05:46:31.332Z,0.80
2018-11-23T05:48:59.965Z,0.80
2018-11-23T05:51:28.476Z,0.80
2018-11-23T05:53:57.044Z,0.80
2018-11-23T05:56:25.617Z,0.80
2018-11-23T05:58:54.410Z,0.80
2018-11-23T06:01:23.095Z,0.80
2018-11-23T06:03:51.719Z,0.80
2018-11-23T06:06:20.289Z,0.90
2018-11-23T06:08:48.847Z,0.90
2018-11-23T06:11:17.884Z,1.00
2018-11-23T06:13:46.447Z,1.00
2018-11-23T06:16:15.018Z,1.10
2018-11-23T06:18:43.558Z,1.10
2018-11-23T06:21:12.076Z,1.20
2018-11-23T06:23:40.620Z,1.20
2018-11-23T06:26:12.871Z,1.30
2018-11-23T06:28:41.423Z,1.30
2018-11-23T06:31:10.253Z,1.30
2018-11-23T06:33:41.136Z,1.40
2018-11-23T06:36:09.828Z,1.40
2018-11-23T06:38:38.492Z,1.40
2018-11-23T06:41:10.531Z,1.50
2018-11-23T06:43:36.700Z,1.50
2018-11-23T06:46:07.024Z,1.50
2018-11-23T06:48:35.571Z,1.60
2018-11-23T06:51:04.430Z,1.60
2018-11-23T06:53:32.957Z,1.60
2018-11-23T06:56:01.899Z,1.60
2018-11-23T06:58:30.496Z,1.60
2018-11-23T07:00:59.023Z,1.60
2018-11-23T07:03:27.978Z,1.60
2018-11-23T07:05:57.190Z,1.60
2018-11-23T07:08:26.160Z,1.60
2018-11-23T07:10:58.618Z,1.60
2018-11-23T07:13:27.917Z,1.70
2018-11-23T07:15:56.451Z,1.70
2018-11-23T07:18:25.327Z,1.70
2018-11-23T07:20:53.924Z,1.70
2018-11-23T07:23:22.422Z,1.70
2018-11-23T07:25:51.288Z,1.70
2018-11-23T07:28:19.791Z,1.80
2018-11-23T07:30:48.401Z,1.80
2018-11-23T07:33:17.039Z,1.80
2018-11-23T07:35:45.593Z,1.90
2018-11-23T07:38:14.116Z,1.90
2018-11-23T07:40:54.498Z,2.00
2018-11-23T07:43:23.052Z,2.00
2018-11-23T07:45:58.565Z,2.00
2018-11-23T07:48:27.113Z,1.90
2018-11-23T07:50:55.830Z,1.90
2018-11-23T07:53:24.230Z,1.90
2018-11-23T07:55:52.941Z,1.90
2018-11-23T07:58:21.453Z,2.00
2018-11-23T08:00:50.094Z,2.00
2018-11-23T08:03:18.604Z,2.00
2018-11-23T08:05:47.169Z,2.10
2018-11-23T08:08:15.792Z,2.10
2018-11-23T08:10:43.552Z,2.10
2018-11-23T08:13:12.039Z,2.10
2018-11-23T08:15:40.579Z,2.20
2018-11-23T08:18:09.140Z,2.20
2018-11-23T08:20:37.684Z,2.20
2018-11-23T08:23:06.274Z,2.20
2018-11-23T08:25:34.811Z,2.10
2018-11-23T08:28:03.385Z,2.10
2018-11-23T08:30:31.948Z,2.10
2018-11-23T08:33:00.450Z,2.10
2018-11-23T08:35:28.982Z,2.20
2018-11-23T08:37:57.487Z,2.20
2018-11-23T08:40:27.357Z,2.20
2018-11-23T08:42:56.484Z,2.10
2018-11-23T08:45:26.191Z,2.10
2018-11-23T08:47:54.699Z,2.10
2018-11-23T08:50:27.859Z,2.10
2018-11-23T08:52:56.410Z,2.20
2018-11-23T08:55:25.239Z,2.30
2018-11-23T08:57:53.777Z,2.30
2018-11-23T09:00:24.336Z,2.30
2018-11-23T09:02:54.484Z,2.40
2018-11-23T09:05:23.033Z,2.40
2018-11-23T09:07:52.682Z,2.40
2018-11-23T09:10:22.919Z,2.40
2018-11-23T09:12:54.418Z,2.40
2018-11-23T09:15:23.173Z,2.40
2018-11-23T09:17:51.706Z,2.50
2018-11-23T09:20:20.539Z,2.50
2018-11-23T09:22:49.073Z,2.50
2018-11-23T09:25:20.062Z,2.60
2018-11-23T09:27:48.590Z,2.60
2018-11-23T09:30:19.130Z,2.70
2018-11-23T09:32:48.567Z,2.70
2018-11-23T09:35:17.169Z,2.80
2018-11-23T09:37:46.094Z,2.90
2018-11-23T09:40:16.285Z,3.10
2018-11-23T09:42:44.804Z,3.20
2018-11-23T09:45:16.113Z,3.30
2018-11-23T09:47:45.626Z,3.30
2018-11-23T09:50:15.679Z,3.30
2018-11-23T09:52:44.970Z,3.30
2018-11-23T09:55:13.620Z,3.40
2018-11-23T09:57:42.144Z,3.50
2018-11-23T10:00:13.074Z,3.60
2018-11-23T10:02:42.067Z,3.70
2018-11-23T10:05:11.679Z,3.80
2018-11-23T10:07:40.493Z,3.90
2018-11-23T10:10:10.327Z,3.90
2018-11-23T10:12:38.901Z,3.90
2018-11-23T10:15:08.331Z,4.00
2018-11-23T10:17:36.839Z,4.00
2018-11-23T10:20:08.439Z,4.00
2018-11-23T10:22:37.236Z,4.00
2018-11-23T10:25:07.762Z,4.10
2018-11-23T10:27:36.312Z,4.20
2018-11-23T10:30:04.906Z,4.30
2018-11-23T10:32:33.436Z,4.40
2018-11-23T10:35:01.933Z,4.40
2018-11-23T10:37:30.494Z,4.40
2018-11-23T10:39:59.083Z,4.50
2018-11-23T10:42:27.615Z,4.40
2018-11-23T10:44:56.109Z,4.50
2018-11-23T10:47:24.649Z,4.50
2018-11-23T10:49:53.253Z,4.50
2018-11-23T10:52:21.831Z,4.50
2018-11-23T10:54:50.831Z,4.50
2018-11-23T10:57:19.473Z,4.50
2018-11-23T10:59:48.039Z,4.50
2018-11-23T11:02:21.908Z,4.50
2018-11-23T11:04:52.643Z,4.40
2018-11-23T11:07:21.184Z,4.40
2018-11-23T11:09:49.698Z,4.40
2018-11-23T11:12:18.288Z,4.40
2018-11-23T11:14:46.803Z,4.40
2018-11-23T11:17:15.356Z,4.40
2018-11-23T11:19:43.915Z,4.50
2018-11-23T11:22:12.448Z,4.60
2018-11-23T11:24:40.940Z,4.60
2018-11-23T11:27:09.479Z,4.70
2018-11-23T11:29:37.968Z,4.70
2018-11-23T11:32:06.509Z,4.70
2018-11-23T11:34:35.029Z,4.80
2018-11-23T11:37:03.577Z,4.80
2018-11-23T11:39:32.122Z,4.80
2018-11-23T11:42:00.654Z,4.80
2018-11-23T11:44:29.252Z,4.80
2018-11-23T11:46:57.802Z,4.80
2018-11-23T11:49:26.312Z,4.80
2018-11-23T11:51:54.859Z,4.80
2018-11-23T11:54:23.360Z,4.70
2018-11-23T11:56:51.883Z,4.70
2018-11-23T11:59:20.811Z,4.70
2018-11-23T12:01:49.348Z,4.70
2018-11-23T12:04:17.839Z,4.70
2018-11-23T12:06:46.560Z,4.60
2018-11-23T12:09:15.317Z,4.60
2018-11-23T12:11:43.870Z,4.60
2018-11-23T12:14:12.384Z,4.50
2018-11-23T12:16:40.945Z,4.50
2018-11-23T12:19:09.538Z,4.50
2018-11-23T12:21:38.058Z,4.50
2018-11-23T12:24:06.742Z,4.50
2018-11-23T12:26:35.276Z,4.40
2018-11-23T12:29:03.886Z,4.40
2018-11-23T12:31:32.457Z,4.40
2018-11-23T12:34:01.423Z,4.30
2018-11-23T12:36:29.969Z,4.20
2018-11-23T12:38:58.498Z,4.10
2018-11-23T12:42:13.563Z,4.00
2018-11-23T12:44:42.307Z,4.00
2018-11-23T12:47:10.927Z,3.90
2018-11-23T12:49:39.619Z,3.90
2018-11-23T12:52:08.712Z,3.90
2018-11-23T12:54:37.191Z,4.00
2018-11-23T12:57:05.828Z,4.00
2018-11-23T12:59:34.378Z,4.00
2018-11-23T13:02:03.067Z,4.00
2018-11-23T13:04:31.973Z,4.10
2018-11-23T13:07:00.580Z,4.10
2018-11-23T13:09:29.133Z,4.20
2018-11-23T13:11:57.697Z,4.20
2018-11-23T13:14:26.250Z,4.20
2018-11-23T13:16:55.195Z,4.10
2018-11-23T13:19:24.034Z,4.10
2018-11-23T13:21:52.831Z,4.10
2018-11-23T13:24:21.449Z,4.10
2018-11-23T13:26:50.018Z,4.10
2018-11-23T13:29:18.540Z,4.10
2018-11-23T13:31:47.860Z,4.10
2018-11-23T13:34:16.417Z,4.20
2018-11-23T13:36:44.970Z,4.20
2018-11-23T13:39:13.597Z,4.20
2018-11-23T13:41:42.142Z,4.30
2018-11-23T13:44:10.748Z,4.30
2018-11-23T13:46:39.265Z,4.30
2018-11-23T13:49:07.792Z,4.20
2018-11-23T13:51:36.313Z,4.20
2018-11-23T13:54:04.896Z,4.20
2018-11-23T13:56:33.492Z,4.20
2018-11-23T13:59:02.013Z,4.20
2018-11-23T14:01:30.686Z,4.20
2018-11-23T14:03:59.287Z,4.20
2018-11-23T14:06:27.967Z,4.20
2018-11-23T14:08:56.545Z,4.20
2018-11-23T14:11:25.103Z,4.10
2018-11-23T14:13:53.942Z,4.10
2018-11-23T14:16:22.518Z,4.10
2018-11-23T14:18:51.069Z,4.10
2018-11-23T14:21:19.669Z,4.00
2018-11-23T14:23:48.187Z,3.90
2018-11-23T14:26:16.786Z,3.90
2018-11-23T14:28:45.367Z,3.80
2018-11-23T14:31:13.908Z,3.80
2018-11-23T14:33:42.424Z,3.80
2018-11-23T14:36:10.984Z,3.80
2018-11-23T14:38:39.498Z,3.80
2018-11-23T14:41:08.766Z,3.70
2018-11-23T14:43:38.349Z,3.80
2018-11-23T14:46:07.339Z,3.80
2018-11-23T14:48:35.907Z,3.80
2018-11-23T14:51:04.871Z,3.70
2018-11-23T14:53:34.077Z,3.70
2018-11-23T14:56:03.313Z,3.70
2018-11-23T14:58:31.847Z,3.60
2018-11-23T15:01:00.394Z,3.60
2018-11-23T15:03:28.936Z,3.50
2018-11-23T15:05:57.447Z,3.50
2018-11-23T15:08:25.959Z,3.40
2018-11-23T15:10:54.707Z,3.40
2018-11-23T15:13:23.255Z,3.30
2018-11-23T15:15:52.593Z,3.30
2018-11-23T15:18:21.172Z,3.30
2018-11-23T15:20:49.762Z,3.30
2018-11-23T15:23:19.822Z,3.30
2018-11-23T15:25:48.353Z,3.30
2018-11-23T15:28:17.153Z,3.40
2018-11-23T15:30:46.645Z,3.40
2018-11-23T15:33:16.776Z,3.40
2018-11-23T15:35:45.889Z,3.40
2018-11-23T15:38:19.158Z,3.40
2018-11-23T15:40:50.099Z,3.40
2018-11-23T15:43:19.767Z,3.40
2018-11-23T15:45:48.269Z,3.40
2018-11-23T15:48:16.851Z,3.40
2018-11-23T15:50:45.998Z,3.40
2018-11-23T15:53:15.829Z,3.40
2018-11-23T15:55:44.434Z,3.40
2018-11-23T15:58:14.438Z,3.40
2018-11-23T16:00:44.441Z,3.40
2018-11-23T16:03:14.425Z,3.40
2018-11-23T16:05:43.139Z,3.30
2018-11-23T16:08:14.150Z,3.30
2018-11-23T16:10:43.332Z,3.20
2018-11-23T16:13:16.925Z,3.20
2018-11-23T16:15:45.463Z,3.20
2018-11-23T16:18:14.395Z,3.20
2018-11-23T16:20:44.417Z,3.20
2018-11-23T16:23:15.441Z,3.20
2018-11-23T16:25:44.667Z,3.20
2018-11-23T16:28:13.652Z,3.20
2018-11-23T16:30:43.473Z,3.20
2018-11-23T16:33:13.508Z,3.20
2018-11-23T16:35:42.678Z,3.30
2018-11-23T16:38:12.908Z,3.30
2018-11-23T16:40:42.945Z,3.30
2018-11-23T16:43:12.464Z,3.40
2018-11-23T16:45:41.663Z,3.40
2018-11-23T16:48:11.326Z,3.40
2018-11-23T16:50:40.021Z,3.40
2018-11-23T16:53:09.028Z,3.40
2018-11-23T16:55:37.790Z,3.50
2018-11-23T16:58:07.752Z,3.50
2018-11-23T17:00:37.770Z,3.50
2018-11-23T17:03:09.446Z,3.50
2018-11-23T17:05:39.489Z,3.50
2018-11-23T17:08:09.079Z,3.50
2018-11-23T17:10:37.700Z,3.50
2018-11-23T17:13:06.344Z,3.50
2018-11-23T17:15:35.027Z,3.50
2018-11-23T17:18:03.538Z,3.50
2018-11-23T17:20:33.364Z,3.60
2018-11-23T17:23:02.958Z,3.60
2018-11-23T17:25:31.886Z,3.60
2018-11-23T17:28:01.932Z,3.60
2018-11-23T17:30:31.760Z,3.60
2018-11-23T17:33:00.495Z,3.60
2018-11-23T17:35:29.337Z,3.60
2018-11-23T17:37:57.857Z,3.60
2018-11-23T17:40:28.129Z,3.60
2018-11-23T17:42:56.910Z,3.60
2018-11-23T17:45:27.855Z,3.60
2018-11-23T17:47:56.521Z,3.50
2018-11-23T17:50:26.823Z,3.50
2018-11-23T17:52:55.589Z,3.50
2018-11-23T17:55:24.188Z,3.50
2018-11-23T17:57:53.664Z,3.50
2018-11-23T18:00:25.736Z,3.50
2018-11-23T18:02:54.935Z,3.50
2018-11-23T18:05:25.378Z,3.50
2018-11-23T18:07:54.628Z,3.50
2018-11-23T18:10:24.637Z,3.40
2018-11-23T18:12:53.925Z,3.40
2018-11-23T18:15:26.781Z,3.40
2018-11-23T18:17:56.736Z,3.40
2018-11-23T18:20:26.624Z,3.40
2018-11-23T18:22:56.228Z,3.40
2018-11-23T18:25:27.270Z,3.50
2018-11-23T18:28:02.204Z,3.50
2018-11-23T18:30:32.100Z,3.50
2018-11-23T18:33:02.846Z,3.50
2018-11-23T18:35:31.437Z,3.50
2018-11-23T18:37:59.967Z,3.50
2018-11-23T18:40:28.522Z,3.50
2018-11-23T18:42:57.055Z,3.50
2018-11-23T18:45:25.752Z,3.50
2018-11-23T18:47:54.312Z,3.50
2018-11-23T18:50:22.878Z,3.50
2018-11-23T18:52:51.404Z,3.50
2018-11-23T18:55:19.926Z,3.50
2018-11-23T18:57:48.565Z,3.50
2018-11-23T19:00:17.433Z,3.50
2018-11-23T19:02:47.169Z,3.50
2018-11-23T19:05:18.330Z,3.50
2018-11-23T19:07:46.950Z,3.50
2018-11-23T19:10:15.578Z,3.60
2018-11-23T19:12:44.332Z,3.60
2018-11-23T19:15:25.158Z,3.60
2018-11-23T19:17:47.656Z,3.60
2018-11-23T19:20:18.323Z,3.60
2018-11-23T19:22:48.258Z,3.60
2018-11-23T19:25:17.085Z,3.60
2018-11-23T19:27:45.725Z,3.60
2018-11-23T19:30:15.856Z,3.60
2018-11-23T19:32:44.424Z,3.60
2018-11-23T19:35:13.160Z,3.60
2018-11-23T19:37:41.970Z,3.60
2018-11-23T19:40:13.902Z,3.70
2018-11-23T19:42:43.260Z,3.80
2018-11-23T19:45:15.848Z,3.90
2018-11-23T19:47:44.652Z,4.00
2018-11-23T19:50:17.108Z,4.00
2018-11-23T19:52:46.492Z,4.10
2018-11-23T19:55:16.192Z,4.20
2018-11-23T19:57:44.760Z,4.30
2018-11-23T20:00:17.928Z,4.30
2018-11-23T20:02:46.684Z,4.40
2018-11-23T20:05:15.364Z,4.40
2018-11-23T20:07:44.569Z,4.50
2018-11-23T20:10:15.526Z,4.60
2018-11-23T20:12:45.036Z,4.60
2018-11-23T20:15:15.893Z,4.60
2018-11-23T20:17:45.442Z,4.60
2018-11-23T20:20:15.335Z,4.50
2018-11-23T20:22:44.326Z,4.40
2018-11-23T20:25:14.232Z,4.30
2018-11-23T20:27:42.987Z,4.20
2018-11-23T20:30:16.609Z,4.20
2018-11-23T20:32:45.458Z,4.10
2018-11-23T20:35:16.141Z,4.00
2018-11-23T20:37:44.899Z,4.00
2018-11-23T20:40:17.362Z,3.90
2018-11-23T20:42:46.731Z,3.90
2018-11-23T20:45:15.419Z,3.90
2018-11-23T20:47:44.167Z,3.90
2018-11-23T20:50:14.157Z,3.90
2018-11-23T20:52:42.827Z,3.90
2018-11-23T20:55:13.626Z,3.80
2018-11-23T20:57:42.287Z,3.80
2018-11-23T21:00:14.885Z,3.80
2018-11-23T21:02:44.400Z,3.80
2018-11-23T21:05:14.274Z,3.80
2018-11-23T21:07:42.805Z,3.80
2018-11-23T21:10:20.503Z,3.80
2018-11-23T21:12:48.117Z,3.80
2018-11-23T21:15:18.316Z,3.90
2018-11-23T21:17:47.743Z,3.90
2018-11-23T21:20:16.308Z,3.90
2018-11-23T21:22:45.616Z,3.90
2018-11-23T21:25:14.259Z,3.90
2018-11-23T21:27:43.874Z,3.90
2018-11-23T21:30:14.776Z,3.90
2018-11-23T21:32:43.544Z,4.00
2018-11-23T21:35:12.913Z,4.00
2018-11-23T21:37:41.482Z,4.00
2018-11-23T21:40:12.151Z,4.10
2018-11-23T21:42:40.719Z,4.10
2018-11-23T21:45:11.781Z,4.10
2018-11-23T21:47:40.335Z,4.10
2018-11-23T21:50:11.170Z,4.10
2018-11-23T21:52:40.016Z,4.20
2018-11-23T21:55:11.254Z,4.20
2018-11-23T21:57:39.764Z,4.20
2018-11-23T22:00:13.736Z,4.30
2018-11-23T22:02:42.592Z,4.30
2018-11-23T22:05:11.677Z,4.40
2018-11-23T22:07:40.365Z,4.30
2018-11-23T22:10:11.036Z,4.40
2018-11-23T22:12:39.621Z,4.40
2018-11-23T22:15:10.233Z,4.40
2018-11-23T22:17:38.834Z,4.40
2018-11-23T22:20:09.852Z,4.40
2018-11-23T22:22:38.389Z,4.40
2018-11-23T22:25:09.701Z,4.40
2018-11-23T22:27:38.238Z,4.40
2018-11-23T22:30:12.324Z,4.50
2018-11-23T22:32:40.859Z,4.50
2018-11-23T22:35:10.440Z,4.50
2018-11-23T22:37:38.994Z,4.40
2018-11-23T22:40:11.052Z,4.50
2018-11-23T22:42:40.054Z,4.50
2018-11-23T22:45:10.392Z,4.40
2018-11-23T22:47:39.025Z,4.50
2018-11-23T22:50:09.742Z,4.50
2018-11-23T22:52:38.333Z,4.50
2018-11-23T22:55:08.743Z,4.50
2018-11-23T22:57:37.427Z,4.50
2018-11-23T23:00:19.519Z,4.50
2018-11-23T23:02:48.815Z,4.50
2018-11-23T23:05:17.705Z,4.50
2018-11-23T23:07:46.339Z,4.50
2018-11-23T23:10:15.167Z,4.50
2018-11-23T23:12:43.719Z,4.50
2018-11-23T23:15:20.208Z,4.50
2018-11-23T23:17:49.041Z,4.50
2018-11-23T23:20:18.789Z,4.50
2018-11-23T23:22:47.391Z,4.50
2018-11-23T23:25:16.011Z,4.40
2018-11-23T23:27:44.626Z,4.40
2018-11-23T23:30:16.957Z,4.40
2018-11-23T23:32:46.385Z,4.40
2018-11-23T23:35:16.040Z,4.40
2018-11-23T23:37:44.581Z,4.30
2018-11-23T23:40:17.214Z,4.30
2018-11-23T23:42:46.594Z,4.40
2018-11-23T23:45:16.435Z,4.30
2018-11-23T23:47:45.146Z,4.30
2018-11-23T23:50:19.759Z,4.30
2018-11-23T23:52:48.802Z,4.30
2018-11-23T23:55:17.505Z,4.30
2018-11-23T23:57:46.903Z,4.20
